Time;durP1;ratioP1;P1;durP2;ratioP2;P2;SDS_P1;SDS_P2;PMS_P1;PMS_P2;Temp;Humidity;BMP_temperature;BMP_pressure;BME280_temperature;BME280_humidity;BME280_pressure;Samples;Min_cycle;Max_cycle;Signal;HPM_P1;HPM_P2
2022/12/19 00:01:25;;;;;;;40.00;29.20;;;0.50;99.90;;;;;;5072572;28;20505;-81
2022/12/19 00:03:56;;;;;;;37.65;28.38;;;0.40;99.90;;;;;;5074909;28;20424;-85
2022/12/19 00:06:22;;;;;;;36.70;26.67;;;0.60;99.90;;;;;;5107447;28;20490;-84
2022/12/19 00:08:50;;;;;;;37.20;26.87;;;0.50;99.90;;;;;;5103649;28;20425;-76
2022/12/19 00:11:17;;;;;;;39.00;27.88;;;0.60;99.90;;;;;;5107228;28;20524;-82
2022/12/19 00:13:43;;;;;;;37.45;27.00;;;0.70;99.90;;;;;;5103322;28;20811;-82
2022/12/19 00:16:15;;;;;;;38.95;29.48;;;0.60;99.90;;;;;;5078955;28;20429;-85
2022/12/19 00:18:42;;;;;;;37.97;28.65;;;0.70;99.90;;;;;;5084445;28;20420;-85
2022/12/19 00:21:11;;;;;;;41.05;28.45;;;0.70;99.90;;;;;;5091068;28;20420;-77
2022/12/19 00:23:37;;;;;;;41.00;28.55;;;0.60;99.90;;;;;;5110351;28;20428;-84
2022/12/19 00:26:15;;;;;;;39.72;27.63;;;0.70;99.90;;;;;;5105059;27;20420;-84
2022/12/19 00:28:42;;;;;;;39.40;29.60;;;0.80;99.90;;;;;;5107221;28;20457;-86
2022/12/19 00:31:08;;;;;;;38.25;27.50;;;0.70;99.90;;;;;;5087107;28;20893;-84
2022/12/19 00:33:34;;;;;;;40.65;29.35;;;0.90;99.90;;;;;;5067096;28;20430;-87
2022/12/19 00:36:06;;;;;;;38.92;28.05;;;0.80;99.90;;;;;;5073092;28;20915;-80
2022/12/19 00:38:32;;;;;;;42.05;28.33;;;0.80;99.90;;;;;;5088507;28;20422;-85
2022/12/19 00:41:16;;;;;;;41.67;28.58;;;0.80;99.90;;;;;;5089594;28;20428;-78
2022/12/19 00:43:43;;;;;;;38.53;28.00;;;1.00;99.90;;;;;;5087856;28;20437;-85
2022/12/19 00:46:11;;;;;;;40.50;27.35;;;0.80;99.90;;;;;;5087364;28;20449;-82
2022/12/19 00:48:37;;;;;;;40.80;27.85;;;0.90;99.90;;;;;;5100518;28;20918;-79
2022/12/19 00:51:05;;;;;;;38.90;28.95;;;0.80;99.90;;;;;;5098972;28;20502;-83
2022/12/19 00:53:32;;;;;;;39.72;28.15;;;1.10;99.90;;;;;;5089189;28;20401;-83
2022/12/19 00:56:07;;;;;;;37.80;26.58;;;0.90;99.90;;;;;;5104670;28;20408;-85
2022/12/19 00:58:32;;;;;;;40.60;28.63;;;1.10;99.90;;;;;;5100767;28;20433;-82
2022/12/19 01:01:04;;;;;;;38.67;28.10;;;1.00;99.90;;;;;;5131866;27;20423;-83
2022/12/19 01:03:30;;;;;;;38.97;28.98;;;1.20;99.90;;;;;;5102413;28;20428;-83
2022/12/19 01:05:55;;;;;;;38.13;27.13;;;1.20;99.90;;;;;;5099767;28;20428;-80
2022/12/19 01:08:21;;;;;;;40.22;28.40;;;1.10;99.90;;;;;;5097308;28;20523;-83
2022/12/19 01:10:48;;;;;;;39.65;27.83;;;1.20;99.90;;;;;;5128813;27;20413;-86
2022/12/19 01:13:16;;;;;;;37.60;25.98;;;1.10;99.90;;;;;;5102900;28;20417;-85
2022/12/19 01:15:42;;;;;;;38.58;27.40;;;1.10;99.90;;;;;;5120391;27;20467;-85
2022/12/19 01:18:09;;;;;;;39.43;28.30;;;1.30;99.90;;;;;;5094005;28;21190;-84
2022/12/19 01:20:46;;;;;;;40.42;29.38;;;1.10;99.90;;;;;;5095899;28;20466;-84
2022/12/19 01:23:14;;;;;;;38.03;27.52;;;1.20;99.90;;;;;;5090239;28;20991;-84
2022/12/19 01:25:40;;;;;;;38.85;27.88;;;1.20;99.90;;;;;;5096972;28;20762;-79
2022/12/19 01:28:06;;;;;;;38.03;27.60;;;1.30;99.90;;;;;;5091106;28;20466;-83
2022/12/19 01:30:33;;;;;;;38.67;26.97;;;1.40;99.90;;;;;;5110418;28;20480;-78
2022/12/19 01:33:00;;;;;;;39.53;27.10;;;1.40;99.90;;;;;;5107340;28;20750;-81
2022/12/19 01:35:26;;;;;;;39.67;27.53;;;1.20;99.90;;;;;;5091890;28;20434;-78
2022/12/19 01:37:53;;;;;;;39.15;27.17;;;1.60;99.90;;;;;;5088319;28;20496;-83
2022/12/19 01:40:19;;;;;;;37.13;27.35;;;1.20;99.90;;;;;;5112114;27;20410;-83
2022/12/19 01:42:45;;;;;;;39.75;26.73;;;1.40;99.90;;;;;;5073885;28;20437;-83
2022/12/19 01:45:11;;;;;;;38.90;27.67;;;1.40;99.90;;;;;;5079163;28;20416;-86
2022/12/19 01:47:51;;;;;;;43.20;29.13;;;1.50;99.90;;;;;;5111440;28;20408;-82
2022/12/19 01:50:27;;;;;;;42.63;27.67;;;1.20;99.90;;;;;;5081603;28;20426;-85
2022/12/19 01:52:54;;;;;;;44.33;30.38;;;1.20;99.90;;;;;;5107573;28;20758;-83
2022/12/19 01:55:19;;;;;;;44.50;30.17;;;1.40;99.90;;;;;;5100047;28;20433;-83
2022/12/19 01:57:46;;;;;;;47.38;30.25;;;1.20;99.90;;;;;;5091525;28;20418;-86
2022/12/19 02:00:12;;;;;;;49.90;31.88;;;1.30;99.90;;;;;;5079456;28;20424;-86
2022/12/19 02:02:45;;;;;;;50.63;31.77;;;1.10;99.90;;;;;;5092309;28;20564;-78
2022/12/19 02:05:11;;;;;;;52.40;31.60;;;1.40;99.90;;;;;;5090724;28;20451;-85
2022/12/19 02:07:38;;;;;;;51.30;32.33;;;1.10;99.90;;;;;;5140880;22;20479;-86
2022/12/19 02:10:04;;;;;;;46.50;30.38;;;1.40;99.90;;;;;;5042498;28;20433;-84
2022/12/19 02:12:35;;;;;;;48.97;32.58;;;1.00;99.90;;;;;;5043302;28;20430;-78
2022/12/19 02:15:02;;;;;;;49.80;31.55;;;1.00;99.90;;;;;;5042999;28;20429;-77
2022/12/19 02:18:03;;;;;;;49.40;32.67;;;1.40;99.90;;;;;;5034376;28;20429;-85
2022/12/19 02:20:31;;;;;;;49.72;32.97;;;1.10;99.90;;;;;;5033167;28;20487;-84
2022/12/19 02:23:18;;;;;;;51.87;31.80;;;1.40;99.90;;;;;;5047972;28;20512;-84
2022/12/19 02:25:54;;;;;;;53.25;32.80;;;1.30;99.90;;;;;;5023753;28;20427;-86
2022/12/19 02:29:01;;;;;;;53.05;33.65;;;1.20;99.90;;;;;;5052073;28;20990;-82
2022/12/19 02:31:31;;;;;;;55.25;34.78;;;1.10;99.90;;;;;;5044761;28;20506;-84
2022/12/19 02:34:27;;;;;;;54.53;34.45;;;1.50;99.90;;;;;;5050527;28;20428;-85
2022/12/19 02:37:03;;;;;;;58.92;37.53;;;1.20;99.90;;;;;;5049756;28;20447;-81
2022/12/19 02:39:47;;;;;;;55.95;33.97;;;1.20;99.90;;;;;;5053696;28;20814;-87
2022/12/19 02:42:21;;;;;;;57.72;35.28;;;1.50;99.90;;;;;;5048474;28;20421;-82
2022/12/19 02:44:50;;;;;;;58.55;37.03;;;1.70;99.90;;;;;;5027891;28;20785;-86
2022/12/19 02:47:17;;;;;;;60.85;35.33;;;1.20;99.90;;;;;;5032647;28;20752;-77
2022/12/19 02:49:43;;;;;;;60.35;37.58;;;1.20;99.90;;;;;;5029290;28;20983;-85
2022/12/19 02:52:09;;;;;;;60.60;35.75;;;1.70;99.90;;;;;;5046072;28;20417;-82
2022/12/19 02:54:35;;;;;;;53.90;33.53;;;1.30;99.90;;;;;;5047928;28;21010;-83
2022/12/19 02:57:26;;;;;;;55.10;34.85;;;1.80;99.90;;;;;;5048441;28;20546;-85
2022/12/19 03:00:07;;;;;;;56.57;35.50;;;1.80;99.90;;;;;;5042869;28;20417;-81
2022/12/19 03:02:56;;;;;;;56.55;35.08;;;1.40;99.90;;;;;;5030315;28;20427;-77
2022/12/19 03:05:43;;;;;;;56.08;34.17;;;1.50;99.90;;;;;;5051173;28;20434;-80
2022/12/19 03:08:27;;;;;;;49.35;33.90;;;1.50;99.90;;;;;;5054814;28;20481;-84
2022/12/19 03:11:03;;;;;;;51.17;33.23;;;2.00;99.90;;;;;;5055919;28;20842;-82
2022/12/19 03:13:41;;;;;;;48.22;32.88;;;1.90;99.90;;;;;;5053696;28;20539;-84
2022/12/19 03:16:09;;;;;;;51.80;34.10;;;1.90;99.90;;;;;;5042568;28;20432;-83
2022/12/19 03:18:35;;;;;;;52.05;33.45;;;1.80;99.90;;;;;;5049635;28;20432;-84
2022/12/19 03:21:19;;;;;;;57.35;34.25;;;1.60;99.90;;;;;;5043442;28;20512;-86
2022/12/19 03:23:45;;;;;;;53.55;34.50;;;2.00;99.90;;;;;;5048708;28;20525;-83
2022/12/19 03:26:20;;;;;;;51.40;33.70;;;2.10;99.90;;;;;;5039676;28;20444;-83
2022/12/19 03:29:14;;;;;;;48.10;32.88;;;2.10;99.90;;;;;;5045366;28;20431;-85
2022/12/19 03:31:41;;;;;;;56.47;35.45;;;1.70;99.90;;;;;;5015336;28;20440;-84
2022/12/19 03:34:25;;;;;;;55.35;35.08;;;1.80;99.90;;;;;;5039818;28;20424;-86
2022/12/19 03:37:00;;;;;;;52.33;34.38;;;2.20;99.90;;;;;;5048975;28;20811;-84
2022/12/19 03:39:27;;;;;;;52.92;35.33;;;2.20;99.90;;;;;;5049186;28;20471;-82
2022/12/19 03:44:42;;;;;;;50.90;32.85;;;1.80;99.90;;;;;;5044329;28;20441;-83
2022/12/19 03:47:19;;;;;;;52.47;34.30;;;1.80;99.90;;;;;;5039770;28;20454;-85
2022/12/19 03:49:46;;;;;;;49.38;33.92;;;2.40;99.90;;;;;;5047680;28;20429;-84
2022/12/19 03:52:20;;;;;;;55.20;35.63;;;2.40;99.90;;;;;;5047531;28;20517;-85
2022/12/19 03:54:53;;;;;;;51.67;35.35;;;1.90;99.90;;;;;;5042025;28;20433;-84
2022/12/19 03:57:35;;;;;;;49.50;33.58;;;2.30;99.90;;;;;;5047656;28;20420;-85
2022/12/19 04:00:05;;;;;;;51.10;34.80;;;1.90;99.90;;;;;;5047246;28;20850;-83
2022/12/19 04:02:34;;;;;;;53.63;35.35;;;2.40;99.90;;;;;;5047956;28;20425;-82
2022/12/19 04:05:05;;;;;;;51.17;33.95;;;2.20;99.90;;;;;;5039079;28;20434;-85
2022/12/19 04:07:31;;;;;;;51.17;35.10;;;2.10;99.90;;;;;;5044657;28;20938;-80
2022/12/19 04:10:00;;;;;;;55.15;37.28;;;2.40;99.90;;;;;;5043491;28;21158;-80
2022/12/19 04:12:35;;;;;;;53.97;36.50;;;2.20;99.90;;;;;;5047792;28;20425;-86
2022/12/19 04:15:00;;;;;;;52.65;33.47;;;2.30;99.90;;;;;;5047558;28;20759;-86
2022/12/19 04:17:36;;;;;;;50.00;34.13;;;2.50;99.90;;;;;;5045549;28;20430;-86
2022/12/19 04:20:19;;;;;;;57.30;36.92;;;2.50;99.90;;;;;;5048394;28;20770;-84
2022/12/19 04:23:03;;;;;;;52.10;34.93;;;2.10;99.90;;;;;;5045898;28;20440;-83
2022/12/19 04:25:34;;;;;;;51.45;36.38;;;2.10;99.90;;;;;;5042305;28;20458;-86
2022/12/19 04:28:09;;;;;;;54.28;36.25;;;2.90;99.90;;;;;;5036181;28;20431;-82
2022/12/19 04:30:37;;;;;;;51.78;35.50;;;2.60;99.90;;;;;;5033687;28;20460;-80
2022/12/19 04:33:03;;;;;;;48.72;34.55;;;2.70;99.90;;;;;;5042928;28;20428;-84
2022/12/19 04:35:29;;;;;;;54.20;36.25;;;2.60;99.90;;;;;;5047610;28;20409;-84
2022/12/19 04:37:54;;;;;;;52.92;34.78;;;2.20;99.90;;;;;;5048424;28;20452;-82
2022/12/19 04:40:20;;;;;;;52.88;34.90;;;2.20;99.90;;;;;;5048708;28;20432;-83
2022/12/19 04:42:46;;;;;;;50.15;32.33;;;2.50;99.90;;;;;;5045997;28;20444;-85
2022/12/19 04:45:11;;;;;;;53.13;34.53;;;2.80;99.90;;;;;;5033277;28;20463;-84
2022/12/19 04:47:37;;;;;;;52.20;35.00;;;2.70;99.90;;;;;;5047383;28;20429;-84
2022/12/19 04:50:04;;;;;;;50.37;34.47;;;2.40;99.90;;;;;;5043469;28;20436;-85
2022/12/19 04:52:29;;;;;;;53.28;34.88;;;2.60;99.90;;;;;;5046528;28;20487;-84
2022/12/19 04:54:55;;;;;;;56.77;36.63;;;2.60;99.90;;;;;;5044156;28;20979;-84
2022/12/19 04:57:21;;;;;;;52.33;34.47;;;2.80;99.90;;;;;;5047723;28;20417;-79
2022/12/19 04:59:47;;;;;;;55.40;35.20;;;2.70;99.90;;;;;;5046165;28;20452;-85
2022/12/19 05:02:12;;;;;;;58.22;37.67;;;2.40;99.90;;;;;;5044552;28;20850;-85
2022/12/19 05:04:38;;;;;;;54.90;34.57;;;2.70;99.90;;;;;;5046278;28;20923;-84
2022/12/19 05:07:03;;;;;;;56.33;33.70;;;2.90;99.90;;;;;;5041513;28;20431;-84
2022/12/19 05:09:29;;;;;;;55.33;34.80;;;2.70;99.90;;;;;;5043144;28;20435;-83
2022/12/19 05:11:55;;;;;;;55.92;35.03;;;2.40;99.90;;;;;;5043370;28;20431;-84
2022/12/19 05:14:20;;;;;;;55.35;33.88;;;2.50;99.90;;;;;;5043073;28;20438;-85
2022/12/19 05:16:46;;;;;;;53.72;33.95;;;2.80;99.90;;;;;;5050955;28;20413;-85
2022/12/19 05:19:12;;;;;;;49.38;33.03;;;2.80;99.90;;;;;;5050733;28;20461;-82
2022/12/19 05:21:39;;;;;;;48.22;31.80;;;2.50;99.90;;;;;;5042439;28;20444;-82
2022/12/19 05:24:05;;;;;;;55.03;34.13;;;2.70;99.90;;;;;;5042731;28;20970;-84
2022/12/19 05:26:30;;;;;;;49.78;33.15;;;3.00;99.90;;;;;;5049952;28;20424;-85
2022/12/19 05:28:56;;;;;;;53.43;31.53;;;3.00;99.90;;;;;;5052965;28;20505;-84
2022/12/19 05:31:22;;;;;;;49.37;32.07;;;3.30;99.90;;;;;;5037193;28;20419;-84
2022/12/19 05:33:48;;;;;;;54.77;33.50;;;2.50;99.90;;;;;;5048822;28;20429;-80
2022/12/19 05:36:15;;;;;;;51.53;32.97;;;3.20;99.90;;;;;;5043885;28;20478;-83
2022/12/19 05:38:41;;;;;;;48.97;32.53;;;2.70;99.90;;;;;;5050733;28;20428;-82
2022/12/19 05:41:12;;;;;;;49.80;32.30;;;2.70;99.90;;;;;;5048618;28;20421;-83
2022/12/19 05:43:38;;;;;;;42.83;28.70;;;3.20;99.90;;;;;;5043852;28;20531;-85
2022/12/19 05:46:05;;;;;;;42.53;29.90;;;2.70;99.90;;;;;;5055365;28;20429;-82
2022/12/19 05:48:30;;;;;;;43.55;29.88;;;3.30;99.90;;;;;;5054461;28;20429;-85
2022/12/19 05:50:56;;;;;;;40.58;27.08;;;3.30;99.90;;;;;;5050784;28;20432;-82
2022/12/19 05:53:23;;;;;;;40.30;26.55;;;3.00;99.90;;;;;;5045375;28;20524;-83
2022/12/19 05:55:49;;;;;;;40.88;27.90;;;3.30;99.90;;;;;;5050013;28;20508;-83
2022/12/19 05:58:18;;;;;;;38.80;28.42;;;3.10;99.90;;;;;;5051758;28;20433;-85
2022/12/19 06:00:43;;;;;;;41.43;27.37;;;3.30;99.90;;;;;;5049522;28;20421;-82
2022/12/19 06:03:09;;;;;;;39.20;26.83;;;2.90;99.90;;;;;;5051298;28;23386;-84
2022/12/19 06:05:38;;;;;;;38.30;26.03;;;3.10;99.90;;;;;;5050559;28;20418;-84
2022/12/19 06:08:04;;;;;;;36.92;25.52;;;3.00;99.90;;;;;;5049472;28;20440;-83
2022/12/19 06:10:30;;;;;;;38.00;25.77;;;3.00;99.90;;;;;;5050354;28;20463;-84
2022/12/19 06:12:56;;;;;;;35.65;24.42;;;3.60;99.90;;;;;;5050754;28;20460;-78
2022/12/19 06:15:21;;;;;;;33.05;23.58;;;3.10;99.90;;;;;;5046601;28;20436;-85
2022/12/19 06:17:47;;;;;;;31.52;22.75;;;3.50;99.90;;;;;;5052268;28;20429;-84
2022/12/19 06:20:13;;;;;;;32.97;22.10;;;3.40;99.90;;;;;;5031867;28;20429;-87
2022/12/19 06:22:38;;;;;;;32.53;23.33;;;3.60;99.90;;;;;;5055109;28;20432;-83
2022/12/19 06:25:04;;;;;;;33.15;22.90;;;3.70;99.90;;;;;;5053529;28;20424;-84
2022/12/19 06:27:30;;;;;;;33.28;21.90;;;3.70;99.90;;;;;;5049488;28;20437;-85
2022/12/19 06:29:55;;;;;;;31.50;21.67;;;3.70;99.90;;;;;;5056800;28;20441;-85
2022/12/19 06:32:21;;;;;;;29.73;21.37;;;3.20;99.90;;;;;;5047117;28;20439;-84
2022/12/19 06:34:47;;;;;;;31.33;22.00;;;3.50;99.90;;;;;;5044982;28;20820;-87
2022/12/19 06:37:12;;;;;;;28.57;21.10;;;3.80;99.90;;;;;;5050057;28;20931;-86
2022/12/19 06:39:38;;;;;;;31.77;20.80;;;3.90;99.90;;;;;;5046198;28;20542;-82
2022/12/19 06:42:21;;;;;;;32.97;21.83;;;3.80;99.90;;;;;;5046954;28;20457;-85
2022/12/19 06:44:48;;;;;;;33.10;22.65;;;3.80;99.90;;;;;;5030181;28;20445;-77
2022/12/19 06:47:14;;;;;;;32.85;21.63;;;3.60;99.90;;;;;;5032009;28;20421;-85
2022/12/19 06:49:39;;;;;;;30.70;21.17;;;3.60;99.90;;;;;;5048277;28;20962;-85
2022/12/19 06:52:05;;;;;;;29.73;20.53;;;3.60;99.90;;;;;;5050272;28;20409;-81
2022/12/19 06:54:31;;;;;;;30.67;21.03;;;3.50;99.90;;;;;;5051883;28;20893;-84
2022/12/19 06:56:56;;;;;;;28.80;20.13;;;3.90;99.90;;;;;;5048086;28;20417;-84
2022/12/19 06:59:22;;;;;;;29.90;20.00;;;3.80;99.90;;;;;;5047915;28;20417;-79
2022/12/19 07:01:57;;;;;;;28.23;20.03;;;3.50;99.90;;;;;;5048485;28;20433;-76
2022/12/19 07:04:45;;;;;;;29.38;21.13;;;4.10;99.90;;;;;;5037459;28;20438;-86
2022/12/19 07:07:11;;;;;;;29.33;20.63;;;3.50;99.90;;;;;;5029340;28;20427;-85
2022/12/19 07:09:36;;;;;;;29.25;20.65;;;4.00;99.90;;;;;;5029657;28;20423;-83
2022/12/19 07:12:02;;;;;;;30.80;20.80;;;3.50;99.90;;;;;;5012537;28;20477;-82
2022/12/19 07:14:28;;;;;;;28.77;19.60;;;3.70;99.90;;;;;;5019864;28;20449;-85
2022/12/19 07:16:54;;;;;;;28.97;19.97;;;3.70;99.90;;;;;;5028012;28;20514;-80
2022/12/19 07:19:21;;;;;;;28.63;19.55;;;4.10;99.90;;;;;;5016771;28;20437;-85
2022/12/19 07:21:47;;;;;;;27.70;19.85;;;3.60;99.90;;;;;;5030027;28;20477;-83
2022/12/19 07:24:13;;;;;;;28.65;19.17;;;3.60;99.90;;;;;;5011353;28;20431;-84
2022/12/19 07:26:41;;;;;;;27.48;19.30;;;4.20;99.90;;;;;;5029419;28;20427;-83
2022/12/19 07:29:08;;;;;;;27.20;19.60;;;4.00;99.90;;;;;;5028890;28;20497;-84
2022/12/19 07:31:33;;;;;;;27.83;19.30;;;4.30;99.90;;;;;;5011707;28;20418;-82
2022/12/19 07:33:59;;;;;;;26.33;18.50;;;4.40;99.90;;;;;;5028679;28;20403;-84
2022/12/19 07:36:25;;;;;;;25.77;17.50;;;4.10;99.90;;;;;;5029302;28;20402;-81
2022/12/19 07:38:50;;;;;;;28.30;18.65;;;4.50;99.90;;;;;;5029987;28;20419;-83
2022/12/19 07:41:16;;;;;;;26.73;18.27;;;4.00;99.90;;;;;;5029465;28;20465;-81
2022/12/19 07:43:42;;;;;;;27.20;18.52;;;4.50;99.90;;;;;;5028547;28;20434;-82
2022/12/19 07:46:08;;;;;;;26.40;17.52;;;4.70;99.90;;;;;;5027641;28;20430;-83
2022/12/19 07:48:33;;;;;;;25.83;17.75;;;4.70;99.90;;;;;;5029168;28;20413;-80
2022/12/19 07:50:59;;;;;;;25.23;17.40;;;5.00;99.90;;;;;;5029219;28;20451;-83
2022/12/19 07:53:26;;;;;;;24.25;17.30;;;4.60;99.90;;;;;;5013159;28;20413;-83
2022/12/19 07:55:52;;;;;;;22.65;17.02;;;4.80;99.90;;;;;;5010144;28;20459;-84
2022/12/19 07:58:18;;;;;;;24.27;17.13;;;5.10;99.90;;;;;;5048152;28;20432;-78
2022/12/19 08:00:44;;;;;;;23.17;17.02;;;5.00;99.90;;;;;;5042277;28;20437;-84
2022/12/19 08:03:09;;;;;;;23.73;16.67;;;4.60;99.90;;;;;;5018924;28;20910;-84
2022/12/19 08:05:35;;;;;;;20.65;15.38;;;4.80;99.90;;;;;;5005201;28;20513;-77
2022/12/19 08:08:00;;;;;;;21.40;15.60;;;4.70;99.90;;;;;;5045930;28;20428;-86
2022/12/19 08:10:26;;;;;;;22.48;16.17;;;4.60;99.90;;;;;;5068585;28;20435;-84
2022/12/19 08:12:52;;;;;;;19.98;15.07;;;5.10;99.90;;;;;;5031101;28;20436;-80
2022/12/19 08:15:18;;;;;;;20.60;15.27;;;4.80;99.90;;;;;;5048775;28;20453;-78
2022/12/19 08:17:43;;;;;;;20.55;14.18;;;4.80;99.90;;;;;;5045436;28;20815;-89
2022/12/19 08:20:10;;;;;;;20.65;14.55;;;5.40;99.90;;;;;;5050335;28;20767;-79
2022/12/19 08:22:36;;;;;;;21.50;15.20;;;5.20;99.90;;;;;;5048903;28;20495;-85
2022/12/19 08:25:02;;;;;;;19.40;14.77;;;5.30;99.90;;;;;;5037873;28;20430;-83
2022/12/19 08:27:28;;;;;;;18.20;14.25;;;5.00;99.90;;;;;;5034621;28;20809;-83
2022/12/19 08:29:54;;;;;;;20.77;14.88;;;5.10;99.90;;;;;;5030376;28;20399;-78
2022/12/19 08:32:19;;;;;;;18.77;14.33;;;5.20;99.90;;;;;;5040307;28;20767;-85
2022/12/19 08:34:45;;;;;;;18.87;15.07;;;5.20;99.90;;;;;;5053363;28;20744;-80
2022/12/19 08:37:11;;;;;;;21.53;15.67;;;5.10;99.90;;;;;;5065918;28;20451;-81
2022/12/19 08:39:36;;;;;;;20.43;14.97;;;5.10;99.90;;;;;;5053027;28;20417;-85
2022/12/19 08:42:02;;;;;;;18.43;14.73;;;5.20;99.90;;;;;;5050227;28;20417;-85
2022/12/19 08:44:28;;;;;;;17.93;14.70;;;5.70;99.90;;;;;;5047815;28;20431;-85
2022/12/19 08:46:53;;;;;;;17.73;14.57;;;5.20;99.90;;;;;;5050795;28;20405;-86
2022/12/19 08:49:19;;;;;;;16.87;14.23;;;5.50;99.90;;;;;;5040631;28;20466;-84
2022/12/19 08:51:45;;;;;;;16.67;13.47;;;5.40;99.90;;;;;;5035622;28;20456;-84
2022/12/19 08:54:11;;;;;;;17.10;13.70;;;5.50;99.90;;;;;;5050075;28;20857;-85
2022/12/19 08:56:37;;;;;;;17.90;14.68;;;5.60;99.90;;;;;;5048941;28;20440;-85
2022/12/19 08:59:04;;;;;;;15.70;14.07;;;5.50;99.90;;;;;;5049554;28;20436;-85
2022/12/19 09:01:29;;;;;;;17.05;13.93;;;5.60;99.90;;;;;;5050866;28;20424;-78
2022/12/19 09:03:59;;;;;;;16.37;13.83;;;5.70;99.90;;;;;;5050130;28;20460;-77
2022/12/19 09:06:25;;;;;;;17.02;14.45;;;5.80;99.90;;;;;;5045426;28;20417;-83
2022/12/19 09:08:51;;;;;;;15.27;13.63;;;6.10;99.90;;;;;;5046963;28;20866;-81
2022/12/19 09:11:18;;;;;;;18.77;15.80;;;5.80;99.90;;;;;;5049682;28;20405;-82
2022/12/19 09:13:45;;;;;;;16.15;14.18;;;6.20;99.90;;;;;;5046833;28;20409;-81
2022/12/19 09:16:15;;;;;;;16.90;14.65;;;5.80;99.90;;;;;;5047660;28;20413;-79
2022/12/19 09:18:43;;;;;;;16.40;14.67;;;5.80;99.90;;;;;;5049558;28;20484;-84
2022/12/19 09:21:09;;;;;;;19.15;15.40;;;6.10;99.90;;;;;;5049058;28;20759;-85
2022/12/19 09:23:35;;;;;;;18.85;15.10;;;5.70;99.90;;;;;;5048820;28;20429;-85
2022/12/19 09:26:07;;;;;;;18.83;15.77;;;6.00;99.90;;;;;;5047237;28;20452;-86
2022/12/19 09:28:34;;;;;;;20.88;16.25;;;6.10;99.90;;;;;;5027109;28;20475;-84
2022/12/19 09:31:03;;;;;;;20.25;17.05;;;6.00;99.90;;;;;;5046949;28;20409;-81
2022/12/19 09:33:30;;;;;;;18.17;15.68;;;6.10;99.90;;;;;;5045782;28;20409;-83
2022/12/19 09:35:56;;;;;;;17.58;15.70;;;6.40;99.90;;;;;;5040465;28;20502;-75
2022/12/19 09:38:24;;;;;;;17.02;15.23;;;6.50;99.90;;;;;;5037825;28;20500;-80
2022/12/19 09:41:11;;;;;;;17.77;15.60;;;6.10;99.90;;;;;;5045569;28;20405;-80
2022/12/19 09:44:02;;;;;;;19.58;16.33;;;6.30;99.90;;;;;;5045967;28;20890;-80
2022/12/19 09:46:42;;;;;;;18.30;15.43;;;6.60;99.90;;;;;;5046826;28;20801;-79
2022/12/19 09:49:20;;;;;;;17.70;15.47;;;6.40;99.90;;;;;;5042798;28;20442;-81
2022/12/19 09:52:27;;;;;;;16.73;15.03;;;6.60;99.90;;;;;;5027083;28;20450;-79
2022/12/19 09:55:02;;;;;;;17.02;14.77;;;6.80;99.90;;;;;;5005121;28;20459;-80
2022/12/19 09:57:46;;;;;;;19.05;16.35;;;6.50;99.90;;;;;;5028485;28;20493;-82
2022/12/19 10:00:18;;;;;;;16.73;14.45;;;6.90;99.90;;;;;;5028606;28;20415;-81
2022/12/19 10:02:53;;;;;;;15.70;13.82;;;6.70;99.90;;;;;;5031854;28;20648;-83
2022/12/19 10:05:29;;;;;;;17.65;15.15;;;6.80;99.90;;;;;;5040776;28;20411;-82
2022/12/19 10:07:55;;;;;;;17.37;14.13;;;6.80;99.90;;;;;;5043095;28;20425;-82
2022/12/19 10:11:09;;;;;;;17.83;14.93;;;6.90;99.90;;;;;;5051308;28;20405;-82
2022/12/19 10:14:12;;;;;;;15.05;13.25;;;7.00;99.90;;;;;;5003951;28;20421;-84
2022/12/19 10:16:59;;;;;;;15.65;14.02;;;7.20;99.90;;;;;;4996833;28;20442;-85
2022/12/19 10:19:24;;;;;;;16.10;14.40;;;7.20;99.90;;;;;;5050500;28;20543;-85
2022/12/19 10:22:02;;;;;;;17.05;13.75;;;7.60;99.90;;;;;;5049613;28;20433;-85
2022/12/19 10:25:05;;;;;;;16.98;14.15;;;7.50;99.90;;;;;;5050797;28;20412;-81
2022/12/19 10:28:03;;;;;;;15.60;13.73;;;7.40;99.90;;;;;;5052820;28;20912;-84
2022/12/19 10:30:34;;;;;;;15.07;13.48;;;7.30;99.90;;;;;;5044035;28;20416;-80
2022/12/19 10:33:34;;;;;;;14.00;12.43;;;7.20;99.90;;;;;;5058346;28;20428;-80
2022/12/19 10:36:00;;;;;;;15.95;13.15;;;7.50;99.90;;;;;;5048316;28;20431;-84
2022/12/19 10:38:34;;;;;;;14.45;12.02;;;7.50;99.90;;;;;;5041813;28;20415;-81
2022/12/19 10:41:12;;;;;;;14.13;12.57;;;7.70;99.90;;;;;;5044571;28;20410;-83
2022/12/19 10:44:08;;;;;;;13.45;11.95;;;7.80;99.90;;;;;;5033980;28;20489;-86
2022/12/19 10:46:45;;;;;;;15.52;12.57;;;7.60;99.90;;;;;;5031686;28;20415;-84
2022/12/19 10:49:20;;;;;;;14.43;11.95;;;7.90;99.90;;;;;;5051547;28;20452;-85
2022/12/19 10:51:59;;;;;;;12.35;11.05;;;7.90;99.90;;;;;;5050714;28;20409;-86
2022/12/19 10:54:35;;;;;;;12.18;10.88;;;8.00;99.90;;;;;;5049701;28;20418;-86
2022/12/19 10:57:24;;;;;;;12.07;10.87;;;7.70;99.90;;;;;;5050305;28;20425;-84
2022/12/19 11:00:14;;;;;;;12.05;10.60;;;7.80;99.90;;;;;;5050029;28;20413;-84
2022/12/19 11:02:45;;;;;;;11.68;10.05;;;7.90;99.90;;;;;;5030816;28;20414;-80
2022/12/19 11:05:30;;;;;;;11.13;10.00;;;8.10;99.90;;;;;;5031709;28;20453;-85
2022/12/19 11:08:08;;;;;;;12.43;10.98;;;7.80;99.90;;;;;;5030821;28;20448;-83
2022/12/19 11:10:46;;;;;;;10.03;8.90;;;7.90;99.90;;;;;;5030601;28;21124;-83
2022/12/19 11:13:18;;;;;;;10.82;9.38;;;7.90;99.90;;;;;;5029658;28;20939;-83
2022/12/19 11:15:58;;;;;;;10.52;9.48;;;7.80;99.90;;;;;;5050742;28;20445;-84
2022/12/19 11:18:32;;;;;;;10.70;9.60;;;8.00;99.90;;;;;;5049413;28;20417;-84
2022/12/19 11:21:28;;;;;;;11.10;9.23;;;8.10;99.90;;;;;;5056867;28;20408;-81
2022/12/19 11:24:01;;;;;;;10.50;9.40;;;8.10;99.90;;;;;;5036683;28;20434;-83
2022/12/19 11:26:38;;;;;;;12.33;9.60;;;7.90;99.90;;;;;;5055095;28;20489;-83
2022/12/19 11:29:25;;;;;;;11.63;9.40;;;8.10;99.90;;;;;;5047036;28;20432;-83
2022/12/19 11:31:59;;;;;;;12.05;9.43;;;8.20;99.90;;;;;;5050201;28;20405;-84
2022/12/19 11:34:27;;;;;;;10.27;8.73;;;8.00;99.90;;;;;;5049785;28;20412;-84
2022/12/19 11:37:05;;;;;;;13.07;8.85;;;7.90;99.90;;;;;;5050402;28;20389;-83
2022/12/19 11:39:55;;;;;;;11.07;9.03;;;7.90;99.90;;;;;;5050372;28;20485;-78
2022/12/19 11:42:34;;;;;;;12.02;9.60;;;8.30;99.90;;;;;;5049350;28;20417;-79
2022/12/19 11:45:30;;;;;;;12.00;8.67;;;8.10;99.90;;;;;;5048665;28;20504;-79
2022/12/19 11:48:12;;;;;;;11.57;8.68;;;8.10;99.90;;;;;;5049411;28;20417;-82
2022/12/19 11:50:49;;;;;;;10.63;8.40;;;8.20;99.90;;;;;;5047722;28;20420;-81
2022/12/19 11:53:29;;;;;;;12.65;9.38;;;8.20;99.90;;;;;;5049400;28;20863;-82
2022/12/19 11:56:10;;;;;;;10.77;8.55;;;8.30;99.90;;;;;;5048902;28;20933;-81
2022/12/19 11:58:36;;;;;;;11.20;8.52;;;8.10;99.90;;;;;;5048015;28;20412;-80
2022/12/19 12:01:20;;;;;;;9.67;8.33;;;8.10;99.90;;;;;;5044359;28;21042;-76
2022/12/19 12:04:29;;;;;;;9.32;8.27;;;8.20;99.90;;;;;;5028118;28;21044;-82
2022/12/19 12:06:56;;;;;;;10.50;7.80;;;8.40;99.90;;;;;;5027498;28;20786;-81
2022/12/19 12:09:48;;;;;;;10.00;9.00;;;8.20;99.90;;;;;;5011393;28;20774;-82
2022/12/19 12:12:25;;;;;;;10.82;7.90;;;8.40;99.90;;;;;;5028995;28;20411;-82
2022/12/19 12:15:12;;;;;;;8.77;7.72;;;8.10;99.90;;;;;;5044355;28;20436;-83
2022/12/19 12:18:16;;;;;;;9.65;7.75;;;8.50;99.90;;;;;;5046659;28;20951;-82
2022/12/19 12:20:44;;;;;;;9.30;8.32;;;8.30;99.90;;;;;;4977131;28;20475;-78
2022/12/19 12:23:29;;;;;;;10.35;7.88;;;8.10;99.90;;;;;;5047709;28;20429;-82
2022/12/19 12:26:17;;;;;;;8.73;7.93;;;8.40;99.90;;;;;;5044094;28;20479;-83
2022/12/19 12:29:03;;;;;;;9.45;7.85;;;8.40;99.90;;;;;;5037008;28;20967;-82
2022/12/19 12:31:47;;;;;;;8.07;7.28;;;8.20;99.90;;;;;;5047016;28;20413;-82
2022/12/19 12:34:13;;;;;;;10.23;7.65;;;8.30;99.90;;;;;;5048210;28;20409;-83
2022/12/19 12:36:58;;;;;;;8.35;6.90;;;8.30;99.90;;;;;;5048245;28;20425;-84
2022/12/19 12:39:35;;;;;;;10.40;7.40;;;8.20;99.90;;;;;;5046531;28;20417;-83
2022/12/19 12:42:22;;;;;;;8.38;6.68;;;8.30;99.90;;;;;;5040656;28;20434;-83
2022/12/19 12:44:51;;;;;;;8.93;6.78;;;8.50;99.90;;;;;;5052758;28;20435;-82
2022/12/19 12:47:26;;;;;;;8.98;6.93;;;8.30;99.90;;;;;;5028926;28;20427;-80
2022/12/19 12:49:55;;;;;;;9.93;7.40;;;8.40;99.90;;;;;;5046743;28;20566;-80
2022/12/19 12:52:31;;;;;;;7.63;6.75;;;8.30;99.90;;;;;;5047040;28;20504;-82
2022/12/19 12:54:57;;;;;;;10.75;7.57;;;8.40;99.90;;;;;;5048172;28;20405;-81
2022/12/19 12:57:26;;;;;;;9.50;7.47;;;8.40;99.90;;;;;;5047117;28;20410;-81
2022/12/19 13:00:16;;;;;;;7.18;6.20;;;8.40;99.90;;;;;;5047063;28;20410;-84
2022/12/19 13:02:46;;;;;;;8.63;6.68;;;8.60;99.90;;;;;;5045529;28;20429;-82
2022/12/19 13:05:21;;;;;;;8.25;6.95;;;8.40;99.90;;;;;;5030037;28;20432;-79